Time;durP1;ratioP1;P1;durP2;ratioP2;P2;SDS_P1;SDS_P2;PMS_P1;PMS_P2;Temp;Humidity;BMP_temperature;BMP_pressure;BME280_temperature;BME280_humidity;BME280_pressure;Samples;Min_cycle;Max_cycle;Signal;HPM_P1;HPM_P2
2021/08/22 00:01:29;;;;;;;4.93;2.92;;;17.90;99.90;;;;;;5064983;28;20048;-78
2021/08/22 00:03:55;;;;;;;7.78;3.40;;;17.90;99.90;;;;;;5070145;28;20076;-76
2021/08/22 00:06:21;;;;;;;4.90;3.40;;;17.90;99.90;;;;;;5068875;28;20036;-77
2021/08/22 00:08:47;;;;;;;7.03;3.63;;;17.90;99.90;;;;;;5062453;28;20041;-75
2021/08/22 00:11:13;;;;;;;5.38;2.90;;;17.90;99.90;;;;;;5080201;28;20052;-75
2021/08/22 00:13:39;;;;;;;5.43;3.17;;;17.70;99.90;;;;;;5064632;28;20037;-75
2021/08/22 00:16:05;;;;;;;7.00;3.03;;;17.80;99.90;;;;;;5064565;28;20094;-75
2021/08/22 00:18:31;;;;;;;4.05;2.60;;;17.70;99.90;;;;;;5064385;28;20021;-76
2021/08/22 00:20:56;;;;;;;6.53;3.15;;;17.70;99.90;;;;;;5063151;28;20040;-74
2021/08/22 00:23:22;;;;;;;7.97;2.97;;;17.60;99.90;;;;;;5064413;28;20031;-76
2021/08/22 00:25:49;;;;;;;4.35;2.67;;;17.70;99.90;;;;;;5064107;28;20037;-76
2021/08/22 00:28:15;;;;;;;6.15;3.45;;;17.60;99.90;;;;;;5064515;28;20611;-77
2021/08/22 00:30:40;;;;;;;7.00;3.30;;;17.60;99.90;;;;;;5063069;28;20084;-74
2021/08/22 00:33:06;;;;;;;6.80;3.22;;;17.60;99.90;;;;;;5062935;28;20033;-77
2021/08/22 00:35:32;;;;;;;6.70;3.05;;;17.60;99.90;;;;;;5064452;28;20051;-76
2021/08/22 00:37:58;;;;;;;5.18;2.67;;;17.50;99.90;;;;;;5063808;28;20032;-75
2021/08/22 00:40:24;;;;;;;6.32;2.67;;;17.40;99.90;;;;;;5064497;28;20029;-75
2021/08/22 00:42:50;;;;;;;8.43;3.03;;;17.40;99.90;;;;;;5064347;28;20033;-76
2021/08/22 00:45:16;;;;;;;5.45;3.33;;;17.40;99.90;;;;;;5064242;28;20024;-74
2021/08/22 00:47:43;;;;;;;9.25;3.47;;;17.40;99.90;;;;;;5063981;28;20033;-73
2021/08/22 00:50:27;;;;;;;3.67;2.45;;;17.30;99.90;;;;;;5062982;28;20029;-75
2021/08/22 00:52:54;;;;;;;4.18;2.33;;;17.30;99.90;;;;;;5064714;28;20032;-75
2021/08/22 00:55:26;;;;;;;3.75;2.38;;;17.20;99.90;;;;;;5065041;28;20032;-76
2021/08/22 00:57:53;;;;;;;5.18;2.78;;;17.30;99.90;;;;;;5066882;28;20723;-76
2021/08/22 01:00:18;;;;;;;3.97;2.22;;;17.30;99.90;;;;;;5066829;28;20087;-77
2021/08/22 01:02:47;;;;;;;3.38;2.40;;;17.20;99.90;;;;;;5066963;28;20525;-74
2021/08/22 01:05:30;;;;;;;3.53;2.30;;;17.40;99.90;;;;;;5066411;28;20029;-77
2021/08/22 01:08:17;;;;;;;7.55;2.75;;;17.20;99.90;;;;;;5067184;28;20033;-75
2021/08/22 01:10:45;;;;;;;7.30;2.67;;;17.20;99.90;;;;;;5067995;28;20032;-77
2021/08/22 01:13:13;;;;;;;4.10;2.50;;;17.30;99.90;;;;;;5068123;28;20084;-77
2021/08/22 01:15:43;;;;;;;3.85;2.10;;;17.20;99.90;;;;;;5066300;28;20072;-74
2021/08/22 01:18:12;;;;;;;5.07;2.25;;;17.20;99.90;;;;;;5066479;28;20029;-76
2021/08/22 01:21:06;;;;;;;4.00;2.20;;;17.20;99.90;;;;;;5067684;28;20106;-75
2021/08/22 01:23:37;;;;;;;6.93;3.13;;;17.20;99.90;;;;;;5066043;28;20130;-77
2021/08/22 01:26:05;;;;;;;3.95;2.65;;;17.10;99.90;;;;;;5067650;28;20025;-76
2021/08/22 01:28:31;;;;;;;4.13;2.25;;;17.10;99.90;;;;;;5067567;28;20089;-76
2021/08/22 01:31:02;;;;;;;10.80;3.22;;;17.10;99.90;;;;;;5067569;28;20043;-75
2021/08/22 01:33:31;;;;;;;5.88;2.58;;;17.10;99.90;;;;;;5067589;28;20091;-74
2021/08/22 01:35:59;;;;;;;3.92;2.17;;;17.10;99.90;;;;;;5067496;28;20027;-74
2021/08/22 01:38:26;;;;;;;3.60;2.05;;;17.10;99.90;;;;;;5066350;28;20029;-79
2021/08/22 01:40:54;;;;;;;4.68;3.05;;;17.00;99.90;;;;;;5066088;28;20424;-76
2021/08/22 01:43:21;;;;;;;4.50;2.45;;;17.00;99.90;;;;;;5067369;28;20029;-75
2021/08/22 01:45:54;;;;;;;5.43;2.70;;;17.00;99.90;;;;;;5067512;28;20017;-74
2021/08/22 01:48:21;;;;;;;4.82;2.90;;;17.10;99.90;;;;;;5067252;28;20055;-75
2021/08/22 01:50:47;;;;;;;4.20;2.30;;;17.10;99.90;;;;;;5067137;28;20071;-77
2021/08/22 01:53:13;;;;;;;5.88;2.70;;;17.10;99.90;;;;;;5067207;28;20456;-76
2021/08/22 01:55:39;;;;;;;4.60;2.63;;;17.10;99.90;;;;;;5067187;28;20084;-78
2021/08/22 01:58:06;;;;;;;3.88;2.30;;;17.00;99.90;;;;;;5067044;28;20033;-76
2021/08/22 02:00:32;;;;;;;3.28;2.17;;;17.10;99.90;;;;;;5066952;28;20049;-74
2021/08/22 02:03:18;;;;;;;5.00;2.55;;;17.10;99.90;;;;;;5065498;28;20032;-75
2021/08/22 02:05:47;;;;;;;8.25;2.22;;;17.10;99.90;;;;;;5065592;28;20029;-75
2021/08/22 02:08:18;;;;;;;3.53;2.15;;;17.10;99.90;;;;;;5066053;28;20036;-77
2021/08/22 02:11:00;;;;;;;5.60;2.70;;;17.10;99.90;;;;;;5065603;28;20396;-75
2021/08/22 02:13:39;;;;;;;3.20;1.80;;;17.10;99.90;;;;;;5066930;28;20389;-75
2021/08/22 02:16:06;;;;;;;5.10;1.83;;;17.10;99.90;;;;;;5066680;28;20037;-77
2021/08/22 02:18:36;;;;;;;4.20;2.15;;;17.10;99.90;;;;;;5066688;28;20037;-77
2021/08/22 02:21:03;;;;;;;3.13;2.05;;;17.10;99.90;;;;;;5066729;28;20049;-76
2021/08/22 02:23:29;;;;;;;4.85;2.30;;;17.10;99.90;;;;;;5066467;28;20470;-77
2021/08/22 02:25:56;;;;;;;3.03;1.80;;;17.10;99.90;;;;;;5066828;28;20029;-76
2021/08/22 02:28:22;;;;;;;4.72;1.90;;;17.00;99.90;;;;;;5066513;28;20024;-75
2021/08/22 02:30:50;;;;;;;6.80;2.83;;;17.10;99.90;;;;;;5066552;28;20051;-74
2021/08/22 02:33:16;;;;;;;5.70;2.55;;;17.00;99.90;;;;;;5066353;28;20025;-75
2021/08/22 02:35:41;;;;;;;3.47;2.03;;;17.00;99.90;;;;;;5066488;28;20096;-75
2021/08/22 02:38:07;;;;;;;4.25;2.38;;;17.00;99.90;;;;;;5066356;28;20029;-74
2021/08/22 02:40:33;;;;;;;2.95;1.85;;;17.00;99.90;;;;;;5066364;28;20037;-74
2021/08/22 02:42:58;;;;;;;4.07;2.25;;;17.00;99.90;;;;;;5066394;28;20032;-76
2021/08/22 02:45:24;;;;;;;5.22;1.98;;;17.00;99.90;;;;;;5066366;28;20056;-75
2021/08/22 02:47:50;;;;;;;3.53;1.88;;;17.00;99.90;;;;;;5066549;28;20057;-74
2021/08/22 02:50:16;;;;;;;4.70;2.15;;;16.90;99.90;;;;;;5066164;28;20079;-74
2021/08/22 02:52:41;;;;;;;3.97;2.20;;;16.90;99.90;;;;;;5064626;28;20083;-75
2021/08/22 02:55:08;;;;;;;4.30;1.88;;;16.80;99.90;;;;;;5065750;28;20390;-75
2021/08/22 02:57:33;;;;;;;4.88;2.40;;;16.80;99.90;;;;;;5064465;28;20115;-73
2021/08/22 02:59:59;;;;;;;9.85;1.92;;;16.80;99.90;;;;;;5065798;28;20033;-74
2021/08/22 03:02:28;;;;;;;5.10;2.38;;;16.80;99.90;;;;;;5066138;28;20033;-75
2021/08/22 03:04:57;;;;;;;7.05;2.10;;;16.80;99.90;;;;;;5066147;28;20049;-75
2021/08/22 03:07:23;;;;;;;3.40;2.05;;;16.70;99.90;;;;;;5064785;28;20021;-73
2021/08/22 03:09:49;;;;;;;3.47;1.70;;;16.70;99.90;;;;;;5065744;28;20032;-75
2021/08/22 03:12:15;;;;;;;6.22;1.75;;;16.70;99.90;;;;;;5066066;28;20072;-75
2021/08/22 03:14:40;;;;;;;3.08;1.83;;;16.60;99.90;;;;;;5065310;28;20095;-74
2021/08/22 03:17:06;;;;;;;3.63;2.20;;;16.60;99.90;;;;;;5064156;28;20021;-75
2021/08/22 03:19:32;;;;;;;4.40;1.92;;;16.60;99.90;;;;;;5065148;28;20025;-76
2021/08/22 03:21:58;;;;;;;4.10;1.77;;;16.60;99.90;;;;;;5065511;28;20512;-77
2021/08/22 03:24:24;;;;;;;4.57;2.00;;;16.60;99.90;;;;;;5065889;28;20059;-77
2021/08/22 03:26:52;;;;;;;2.55;1.88;;;16.60;99.90;;;;;;5065769;28;20049;-75
2021/08/22 03:29:17;;;;;;;3.42;1.63;;;16.60;99.90;;;;;;5065465;28;20040;-75
2021/08/22 03:31:43;;;;;;;4.38;1.92;;;16.50;99.90;;;;;;5063982;28;20053;-75
2021/08/22 03:34:09;;;;;;;9.40;2.05;;;16.60;99.90;;;;;;5064902;28;20083;-76
2021/08/22 03:36:37;;;;;;;2.85;1.85;;;16.60;99.90;;;;;;5065034;28;20029;-74
2021/08/22 03:39:04;;;;;;;3.25;2.13;;;16.60;99.90;;;;;;5065240;28;20109;-75
2021/08/22 03:41:30;;;;;;;4.07;1.95;;;16.60;99.90;;;;;;5063704;28;20060;-74
2021/08/22 03:43:57;;;;;;;5.15;2.58;;;16.60;99.90;;;;;;5065496;28;20362;-75
2021/08/22 03:46:24;;;;;;;4.60;2.22;;;16.50;99.90;;;;;;5064087;28;20036;-75
2021/08/22 03:48:51;;;;;;;2.47;1.40;;;16.50;99.90;;;;;;5063921;28;20055;-74
2021/08/22 03:51:17;;;;;;;2.42;1.70;;;16.50;99.90;;;;;;5064998;28;20084;-76
2021/08/22 03:53:42;;;;;;;3.50;2.00;;;16.50;99.90;;;;;;5065086;28;20033;-76
2021/08/22 03:56:08;;;;;;;5.68;2.25;;;16.50;99.90;;;;;;5064895;28;20049;-75
2021/08/22 03:58:34;;;;;;;3.42;1.80;;;16.50;99.90;;;;;;5063347;28;20035;-78
2021/08/22 04:01:00;;;;;;;2.85;2.05;;;16.50;99.90;;;;;;5063644;28;20032;-76
2021/08/22 04:03:27;;;;;;;3.13;1.52;;;16.50;99.90;;;;;;5064693;28;20048;-76
2021/08/22 04:05:56;;;;;;;4.88;2.15;;;16.60;99.90;;;;;;5064963;28;20071;-75
2021/08/22 04:08:24;;;;;;;3.20;1.98;;;16.50;99.90;;;;;;5064891;28;20123;-74
2021/08/22 04:10:54;;;;;;;2.65;1.67;;;16.60;99.90;;;;;;5064812;28;20044;-74
2021/08/22 04:13:20;;;;;;;5.25;2.00;;;16.50;99.90;;;;;;5064777;28;20127;-74
2021/08/22 04:15:46;;;;;;;3.67;1.70;;;16.60;99.90;;;;;;5064435;28;20069;-75
2021/08/22 04:18:12;;;;;;;2.53;1.45;;;16.60;99.90;;;;;;5064575;28;20047;-74
2021/08/22 04:20:43;;;;;;;2.47;1.35;;;16.60;99.90;;;;;;5064520;28;20037;-76
2021/08/22 04:23:09;;;;;;;2.95;1.83;;;16.60;99.90;;;;;;5064120;28;20029;-76
2021/08/22 04:25:35;;;;;;;3.17;1.63;;;16.60;99.90;;;;;;5063277;28;20048;-75
2021/08/22 04:28:01;;;;;;;2.63;1.45;;;16.60;99.90;;;;;;5064323;28;20021;-75
2021/08/22 04:30:27;;;;;;;2.83;1.30;;;16.60;99.90;;;;;;5064243;28;20054;-76
2021/08/22 04:32:57;;;;;;;4.78;1.77;;;16.70;99.90;;;;;;5063167;28;20079;-75
2021/08/22 04:35:25;;;;;;;3.80;1.85;;;16.70;99.90;;;;;;5065916;28;20036;-75
2021/08/22 04:37:51;;;;;;;3.72;1.75;;;16.70;99.90;;;;;;5067252;28;20033;-74
2021/08/22 04:40:16;;;;;;;2.20;1.40;;;16.70;99.90;;;;;;5063907;28;20040;-73
2021/08/22 04:42:45;;;;;;;3.97;1.55;;;16.70;99.90;;;;;;5063933;28;20493;-75
2021/08/22 04:45:11;;;;;;;2.85;1.42;;;16.80;99.90;;;;;;5062575;28;20397;-73
2021/08/22 04:47:36;;;;;;;4.20;1.33;;;16.80;99.90;;;;;;5063927;28;20029;-73
2021/08/22 04:50:03;;;;;;;2.47;1.63;;;16.70;99.90;;;;;;5064118;28;20044;-74
2021/08/22 04:52:29;;;;;;;3.58;1.73;;;16.70;99.90;;;;;;5063713;28;20370;-76
2021/08/22 04:55:02;;;;;;;2.42;1.30;;;16.70;99.90;;;;;;5063979;28;20025;-76
2021/08/22 04:57:29;;;;;;;1.98;1.38;;;16.70;99.90;;;;;;5064083;28;20032;-75
2021/08/22 04:59:54;;;;;;;3.63;2.08;;;16.60;99.90;;;;;;5064195;28;20037;-74
2021/08/22 05:02:20;;;;;;;6.53;1.55;;;16.70;99.90;;;;;;5064077;28;20041;-73
2021/08/22 05:04:45;;;;;;;2.75;1.45;;;16.80;99.90;;;;;;5058057;28;20036;-72
2021/08/22 05:07:11;;;;;;;2.85;1.55;;;16.70;99.90;;;;;;5052375;28;20048;-75
2021/08/22 05:09:36;;;;;;;3.53;1.67;;;16.70;99.90;;;;;;5051334;28;20025;-74
2021/08/22 05:12:03;;;;;;;3.95;2.20;;;16.70;99.90;;;;;;5056714;28;20025;-75
2021/08/22 05:14:35;;;;;;;4.13;1.83;;;16.70;99.90;;;;;;5064130;28;20048;-74
2021/08/22 05:17:03;;;;;;;3.13;1.70;;;16.70;99.90;;;;;;5057499;28;20029;-74
2021/08/22 05:19:29;;;;;;;4.93;1.70;;;16.70;99.90;;;;;;5042694;28;20057;-75
2021/08/22 05:21:54;;;;;;;4.32;2.10;;;16.70;99.90;;;;;;5043982;28;20045;-74
2021/08/22 05:24:20;;;;;;;7.25;2.28;;;16.70;99.90;;;;;;5044197;28;20101;-74
2021/08/22 05:26:46;;;;;;;2.28;1.35;;;16.80;99.90;;;;;;5043925;28;20033;-74
2021/08/22 05:29:11;;;;;;;6.05;1.90;;;16.70;99.90;;;;;;5043702;28;20033;-75
2021/08/22 05:31:37;;;;;;;2.90;1.70;;;16.70;99.90;;;;;;5055132;28;20017;-75
2021/08/22 05:34:02;;;;;;;2.90;1.45;;;16.80;99.90;;;;;;5056953;28;20029;-74
2021/08/22 05:36:34;;;;;;;3.67;1.90;;;16.70;99.90;;;;;;5050377;28;20022;-76
2021/08/22 05:39:00;;;;;;;5.80;1.85;;;16.70;99.90;;;;;;5056878;28;20032;-76
2021/08/22 05:41:25;;;;;;;2.97;1.50;;;16.70;99.90;;;;;;5052318;28;20033;-75
2021/08/22 05:43:51;;;;;;;3.03;1.83;;;16.80;99.90;;;;;;5055373;28;20087;-74
2021/08/22 05:46:16;;;;;;;2.75;1.50;;;16.80;99.90;;;;;;5048315;28;20093;-74
2021/08/22 05:48:42;;;;;;;3.67;1.88;;;16.80;99.90;;;;;;5044551;28;20025;-75
2021/08/22 05:51:17;;;;;;;7.65;1.92;;;16.80;99.90;;;;;;5055054;28;20534;-74
2021/08/22 05:53:48;;;;;;;3.33;1.70;;;16.80;99.90;;;;;;5078689;28;20029;-76
2021/08/22 05:56:15;;;;;;;2.67;1.92;;;16.70;99.90;;;;;;5051318;28;20033;-75
2021/08/22 05:58:40;;;;;;;4.15;1.63;;;16.80;99.90;;;;;;5047023;28;20029;-77
2021/08/22 06:01:07;;;;;;;2.55;1.60;;;16.80;99.90;;;;;;5052599;28;20041;-77
2021/08/22 06:03:33;;;;;;;2.58;1.42;;;16.70;99.90;;;;;;5066835;28;20390;-76
2021/08/22 06:06:11;;;;;;;4.75;1.88;;;16.60;99.90;;;;;;5065996;28;20028;-77
2021/08/22 06:08:36;;;;;;;4.72;2.50;;;16.70;99.90;;;;;;5052573;28;20033;-78
2021/08/22 06:11:02;;;;;;;2.47;1.55;;;16.60;99.90;;;;;;5055968;28;20150;-78
2021/08/22 06:13:28;;;;;;;5.55;2.20;;;16.70;99.90;;;;;;5056988;28;20067;-78
2021/08/22 06:15:56;;;;;;;7.40;2.00;;;16.60;99.90;;;;;;5045411;28;20517;-80
2021/08/22 06:18:34;;;;;;;2.92;1.65;;;16.60;99.90;;;;;;5057614;28;20036;-77
2021/08/22 06:21:01;;;;;;;4.10;1.70;;;16.60;99.90;;;;;;5064263;28;20045;-79
2021/08/22 06:23:26;;;;;;;5.78;2.40;;;16.60;99.90;;;;;;5065745;28;20047;-78
2021/08/22 06:25:52;;;;;;;4.75;2.08;;;16.60;99.90;;;;;;5065086;28;20053;-78
2021/08/22 06:28:18;;;;;;;4.03;2.25;;;16.50;99.90;;;;;;5060565;28;20044;-77
2021/08/22 06:30:44;;;;;;;8.73;2.28;;;16.50;99.90;;;;;;5046179;28;20045;-77
2021/08/22 06:33:10;;;;;;;4.85;2.35;;;16.50;99.90;;;;;;5061745;28;20025;-73
2021/08/22 06:35:36;;;;;;;6.38;2.40;;;16.50;99.90;;;;;;5046313;28;20036;-75
2021/08/22 06:38:02;;;;;;;3.70;2.22;;;16.50;99.90;;;;;;5044489;28;20032;-74
2021/08/22 06:40:28;;;;;;;5.32;2.88;;;16.40;99.90;;;;;;5065214;28;20041;-73
2021/08/22 06:42:56;;;;;;;5.57;2.53;;;16.50;99.90;;;;;;5065304;28;20113;-72
2021/08/22 06:45:22;;;;;;;2.78;2.08;;;16.50;99.90;;;;;;5066421;28;20029;-71
2021/08/22 06:47:52;;;;;;;2.67;2.28;;;16.50;99.90;;;;;;5057578;28;20037;-71
2021/08/22 06:50:18;;;;;;;6.35;2.67;;;16.50;99.90;;;;;;5050174;28;20025;-70
2021/08/22 06:52:44;;;;;;;4.78;2.42;;;16.50;99.90;;;;;;5064537;28;20477;-70
2021/08/22 06:55:10;;;;;;;3.70;2.47;;;16.40;99.90;;;;;;5065637;28;20025;-69
2021/08/22 06:57:36;;;;;;;2.55;1.98;;;16.40;99.90;;;;;;5066204;28;20053;-72
2021/08/22 07:00:04;;;;;;;5.38;2.88;;;16.50;99.90;;;;;;5061085;28;20057;-74
2021/08/22 07:02:30;;;;;;;4.60;2.38;;;16.40;99.90;;;;;;5062730;28;20448;-72
2021/08/22 07:04:57;;;;;;;11.13;2.65;;;16.50;99.90;;;;;;5059743;28;20032;-72
2021/08/22 07:07:22;;;;;;;5.53;2.97;;;16.50;99.90;;;;;;5065753;28;20040;-71
2021/08/22 07:09:48;;;;;;;4.07;1.98;;;16.50;99.90;;;;;;5064507;28;20036;-71
2021/08/22 07:12:14;;;;;;;5.47;2.28;;;16.60;99.90;;;;;;5063974;28;20020;-71
2021/08/22 07:14:40;;;;;;;4.88;2.35;;;16.50;99.90;;;;;;5065172;28;20037;-71
2021/08/22 07:17:06;;;;;;;3.85;2.20;;;16.60;99.90;;;;;;5064290;28;20025;-71
2021/08/22 07:19:32;;;;;;;3.15;2.30;;;16.60;99.90;;;;;;5053314;28;20362;-71
2021/08/22 07:21:57;;;;;;;5.10;2.63;;;16.60;99.90;;;;;;5080365;28;20039;-72
2021/08/22 07:24:23;;;;;;;3.05;1.85;;;16.60;99.90;;;;;;5080621;28;20533;-71
2021/08/22 07:26:49;;;;;;;4.70;2.83;;;16.60;99.90;;;;;;5065128;28;20032;-69
2021/08/22 07:29:15;;;;;;;4.80;2.78;;;16.50;99.90;;;;;;5065205;28;20443;-70
2021/08/22 07:31:40;;;;;;;7.03;2.78;;;16.60;99.90;;;;;;5064938;28;20084;-69
2021/08/22 07:34:06;;;;;;;3.85;2.55;;;16.50;99.90;;;;;;5080355;28;20044;-70
2021/08/22 07:36:32;;;;;;;4.85;3.10;;;16.50;99.90;;;;;;5065129;28;20044;-71
2021/08/22 07:38:57;;;;;;;4.85;2.22;;;16.60;99.90;;;;;;5064653;28;20059;-72
2021/08/22 07:41:23;;;;;;;7.10;2.55;;;16.70;99.90;;;;;;5058753;28;20052;-71
2021/08/22 07:43:49;;;;;;;4.93;2.60;;;16.60;99.90;;;;;;5063527;28;20087;-69
2021/08/22 07:46:18;;;;;;;4.22;2.45;;;16.60;99.90;;;;;;5072940;28;20060;-70
2021/08/22 07:48:44;;;;;;;3.78;2.10;;;16.60;99.90;;;;;;5056470;28;20029;-70
2021/08/22 07:51:09;;;;;;;6.20;2.55;;;16.60;99.90;;;;;;5060515;28;20025;-71
2021/08/22 07:53:36;;;;;;;4.88;2.53;;;16.60;99.90;;;;;;5061674;28;20079;-70
2021/08/22 07:56:04;;;;;;;9.18;3.10;;;16.70;99.90;;;;;;5075095;28;20064;-72
2021/08/22 07:58:31;;;;;;;6.80;3.13;;;16.60;99.90;;;;;;5042591;28;20693;-71
2021/08/22 08:00:57;;;;;;;5.60;2.97;;;16.60;99.90;;;;;;5044285;28;20699;-71
2021/08/22 08:03:24;;;;;;;6.72;3.03;;;16.60;99.90;;;;;;5052481;28;20068;-71
2021/08/22 08:05:49;;;;;;;4.22;2.50;;;16.70;99.90;;;;;;5060679;28;20021;-71
2021/08/22 08:08:15;;;;;;;8.93;3.88;;;16.70;99.90;;;;;;5043486;28;20441;-71
2021/08/22 08:10:40;;;;;;;5.25;3.17;;;16.70;99.90;;;;;;5043335;28;20025;-72
2021/08/22 08:13:06;;;;;;;4.38;2.88;;;16.80;99.90;;;;;;5044612;28;20072;-71
2021/08/22 08:15:32;;;;;;;9.23;3.25;;;16.80;99.90;;;;;;5042990;28;20092;-73
2021/08/22 08:18:18;;;;;;;11.05;3.88;;;16.80;99.90;;;;;;5072572;28;20049;-73
2021/08/22 08:20:44;;;;;;;5.45;3.20;;;16.80;99.90;;;;;;5059266;28;20056;-71
2021/08/22 08:23:09;;;;;;;6.57;3.10;;;16.80;99.90;;;;;;5056987;28;20025;-71
2021/08/22 08:25:35;;;;;;;4.45;2.75;;;16.80;99.90;;;;;;5061729;28;20494;-71
2021/08/22 08:28:00;;;;;;;8.82;3.90;;;16.80;99.90;;;;;;5058384;28;20500;-72
2021/08/22 08:30:26;;;;;;;6.93;3.22;;;16.80;99.90;;;;;;5056166;28;20037;-70
2021/08/22 08:32:52;;;;;;;5.65;3.58;;;16.70;99.90;;;;;;5057584;28;20048;-70
2021/08/22 08:35:17;;;;;;;7.75;3.80;;;16.80;99.90;;;;;;5058520;28;20052;-70
2021/08/22 08:37:43;;;;;;;3.90;3.00;;;16.60;99.90;;;;;;5059665;28;20555;-69
2021/08/22 08:40:14;;;;;;;9.60;3.92;;;16.70;99.90;;;;;;5057645;28;20040;-71
2021/08/22 08:42:55;;;;;;;7.53;4.03;;;16.70;99.90;;;;;;5057920;28;20026;-71
2021/08/22 08:45:43;;;;;;;10.13;4.60;;;16.70;99.90;;;;;;5058194;28;20036;-70
2021/08/22 08:48:08;;;;;;;7.72;3.35;;;16.70;99.90;;;;;;5063388;28;20060;-69
2021/08/22 08:51:05;;;;;;;7.65;4.10;;;16.60;99.90;;;;;;5061053;28;20044;-71
2021/08/22 08:53:51;;;;;;;6.18;3.58;;;16.60;99.90;;;;;;5064487;28;20391;-72
2021/08/22 08:56:24;;;;;;;6.10;3.45;;;16.60;99.90;;;;;;5054498;28;20125;-70
2021/08/22 08:58:50;;;;;;;9.15;3.72;;;16.60;99.90;;;;;;5056334;28;20028;-71
2021/08/22 09:01:16;;;;;;;6.95;2.80;;;16.60;99.90;;;;;;5056598;28;20056;-70
2021/08/22 09:04:02;;;;;;;5.28;3.35;;;16.50;99.90;;;;;;5056951;28;20017;-71
2021/08/22 09:06:30;;;;;;;8.70;3.72;;;16.60;99.90;;;;;;5058268;28;20030;-70
2021/08/22 09:09:33;;;;;;;15.13;4.30;;;16.60;99.90;;;;;;5066003;28;20111;-71
2021/08/22 09:12:36;;;;;;;6.93;3.60;;;16.60;99.90;;;;;;5056710;28;20029;-70
2021/08/22 09:15:23;;;;;;;6.63;4.03;;;16.60;99.90;;;;;;5063511;28;20052;-70
2021/08/22 09:18:50;;;;;;;12.48;4.00;;;16.60;99.90;;;;;;5052492;28;20052;-71
2021/08/22 09:21:43;;;;;;;8.23;4.28;;;16.60;99.90;;;;;;5052151;28;20545;-72
2021/08/22 09:24:18;;;;;;;6.07;3.53;;;16.60;99.90;;;;;;5066558;28;20029;-70
2021/08/22 09:27:29;;;;;;;7.82;4.53;;;16.60;99.90;;;;;;5083036;28;20036;-71
2021/08/22 09:30:22;;;;;;;12.30;4.65;;;16.60;99.90;;;;;;5048463;28;20128;-72
2021/08/22 09:33:23;;;;;;;9.90;4.90;;;16.60;99.90;;;;;;5049632;28;20091;-72
2021/08/22 09:36:01;;;;;;;7.50;4.20;;;16.60;99.90;;;;;;5064043;28;20032;-71
2021/08/22 09:39:04;;;;;;;6.85;3.92;;;16.60;99.90;;;;;;5067398;28;20028;-72
2021/08/22 09:42:04;;;;;;;6.70;4.00;;;16.70;99.90;;;;;;5053747;28;20501;-71
2021/08/22 09:44:42;;;;;;;6.10;3.50;;;16.60;99.90;;;;;;5047346;28;20024;-74
2021/08/22 09:47:29;;;;;;;6.90;3.72;;;16.60;99.90;;;;;;5057488;28;20053;-70
2021/08/22 09:50:24;;;;;;;5.32;3.38;;;16.60;99.90;;;;;;5058448;28;20025;-72
2021/08/22 09:53:11;;;;;;;6.28;3.72;;;16.70;99.90;;;;;;5057266;28;20091;-70
2021/08/22 09:55:58;;;;;;;7.60;4.13;;;16.60;99.90;;;;;;5057324;28;20029;-71
2021/08/22 09:58:55;;;;;;;5.25;3.72;;;16.60;99.90;;;;;;5048254;28;20025;-72
2021/08/22 10:01:42;;;;;;;11.80;4.10;;;16.60;99.90;;;;;;5066874;28;20045;-70
2021/08/22 10:04:45;;;;;;;6.78;4.03;;;16.70;99.90;;;;;;5056527;28;20053;-70
2021/08/22 10:07:26;;;;;;;5.55;3.67;;;16.70;99.90;;;;;;5054446;28;20064;-70
2021/08/22 10:10:06;;;;;;;7.78;3.63;;;16.70;99.90;;;;;;5057081;28;20037;-71
2021/08/22 10:12:38;;;;;;;5.55;3.80;;;16.70;99.90;;;;;;5056794;28;20068;-72
2021/08/22 10:15:04;;;;;;;6.93;4.03;;;16.70;99.90;;;;;;5044615;28;20057;-71
2021/08/22 10:17:32;;;;;;;10.25;4.90;;;16.80;99.90;;;;;;5046856;28;20167;-70
2021/08/22 10:19:57;;;;;;;7.13;4.05;;;16.80;99.90;;;;;;5046573;28;20033;-70
2021/08/22 10:22:36;;;;;;;8.80;4.65;;;16.90;99.90;;;;;;5045471;28;20021;-70
2021/08/22 10:25:20;;;;;;;9.38;5.10;;;16.80;99.90;;;;;;5046799;28;20033;-71
2021/08/22 10:27:48;;;;;;;13.77;4.95;;;16.90;99.90;;;;;;5045464;28;20097;-70
2021/08/22 10:30:29;;;;;;;6.93;4.45;;;16.90;99.90;;;;;;5046275;28;20041;-71
2021/08/22 10:32:58;;;;;;;8.43;5.00;;;16.90;99.90;;;;;;5062410;28;20128;-72
2021/08/22 10:35:26;;;;;;;9.85;5.38;;;16.90;99.90;;;;;;5066595;28;20099;-70
2021/08/22 10:37:52;;;;;;;13.07;6.05;;;16.90;99.90;;;;;;5065634;28;20116;-70
2021/08/22 10:40:21;;;;;;;8.02;4.72;;;16.90;99.90;;;;;;5066262;28;20048;-71
2021/08/22 10:42:48;;;;;;;8.50;5.05;;;16.90;99.90;;;;;;5065609;28;20025;-71
2021/08/22 10:45:51;;;;;;;11.20;5.70;;;17.00;99.90;;;;;;5066379;28;20028;-71
2021/08/22 10:48:23;;;;;;;10.43;5.70;;;17.00;99.90;;;;;;5066033;28;20025;-70
2021/08/22 10:51:02;;;;;;;10.20;5.63;;;17.00;99.90;;;;;;5066298;28;20060;-71
2021/08/22 10:53:33;;;;;;;8.27;5.00;;;17.00;99.90;;;;;;5066454;28;20079;-72
2021/08/22 10:56:19;;;;;;;12.18;5.70;;;17.00;99.90;;;;;;5066350;28;20025;-70
2021/08/22 10:59:08;;;;;;;7.50;5.07;;;17.00;99.90;;;;;;5064619;28;20032;-72
2021/08/22 11:01:39;;;;;;;8.80;5.55;;;17.00;99.90;;;;;;5066159;28;20061;-72
2021/08/22 11:04:15;;;;;;;12.43;6.35;;;17.10;99.90;;;;;;5065327;28;20029;-73
2021/08/22 11:06:55;;;;;;;9.45;5.75;;;17.10;99.90;;;;;;5066124;28;20053;-71
2021/08/22 11:09:43;;;;;;;11.18;6.30;;;17.10;99.90;;;;;;5065918;28;20092;-71
2021/08/22 11:12:27;;;;;;;12.23;6.20;;;17.20;99.90;;;;;;5065703;28;20029;-71
2021/08/22 11:14:54;;;;;;;11.20;7.15;;;17.20;99.90;;;;;;5065661;28;20059;-71
2021/08/22 11:17:20;;;;;;;13.05;6.40;;;17.10;99.90;;;;;;5065814;28;20036;-71
2021/08/22 11:19:45;;;;;;;15.30;6.97;;;17.10;99.90;;;;;;5080989;28;20029;-72
2021/08/22 11:22:23;;;;;;;12.10;6.72;;;17.20;99.90;;;;;;5080893;28;20371;-71
2021/08/22 11:24:51;;;;;;;12.13;6.85;;;17.20;99.90;;;;;;5065165;28;20065;-71
2021/08/22 11:27:28;;;;;;;13.40;6.70;;;17.20;99.90;;;;;;5064598;28;20044;-72
2021/08/22 11:30:07;;;;;;;13.45;6.30;;;17.30;99.90;;;;;;5065641;28;20128;-72
2021/08/22 11:32:32;;;;;;;11.48;6.88;;;17.30;99.90;;;;;;5065164;28;20044;-71
2021/08/22 11:35:14;;;;;;;9.05;5.80;;;17.30;99.90;;;;;;5065100;28;20047;-71
2021/08/22 11:37:40;;;;;;;10.57;5.97;;;17.40;99.90;;;;;;5065305;28;20035;-71
2021/08/22 11:40:09;;;;;;;11.50;6.78;;;17.50;99.90;;;;;;5072624;28;20032;-72
2021/08/22 11:42:36;;;;;;;17.20;7.90;;;17.50;99.90;;;;;;5045284;28;20034;-72
2021/08/22 11:45:08;;;;;;;11.20;6.53;;;17.50;99.90;;;;;;5045340;28;20060;-71
2021/08/22 11:47:36;;;;;;;10.07;6.00;;;17.60;99.90;;;;;;5045317;28;20152;-71
2021/08/22 11:50:07;;;;;;;10.35;6.03;;;17.50;99.90;;;;;;5044916;28;20550;-72
2021/08/22 11:52:35;;;;;;;11.38;6.70;;;17.50;99.90;;;;;;5044807;28;20056;-73
2021/08/22 11:55:03;;;;;;;10.95;5.97;;;17.50;99.90;;;;;;5045181;28;20040;-72
2021/08/22 11:57:29;;;;;;;11.35;5.65;;;17.50;99.90;;;;;;5043745;28;20022;-70
2021/08/22 12:00:26;;;;;;;11.55;7.00;;;17.50;99.90;;;;;;5044092;28;20090;-72
2021/08/22 12:03:02;;;;;;;9.65;6.10;;;17.50;99.90;;;;;;5041747;28;20430;-71
2021/08/22 12:05:30;;;;;;;14.55;6.93;;;17.50;99.90;;;;;;5044355;28;20029;-72
2021/08/22 12:08:10;;;;;;;9.82;6.57;;;17.40;99.90;;;;;;5053798;28;20052;-72
2021/08/22 12:10:38;;;;;;;10.23;6.00;;;17.40;99.90;;;;;;5064052;28;20055;-70
2021/08/22 12:13:13;;;;;;;19.60;7.63;;;17.40;99.90;;;;;;5079053;28;20024;-71
2021/08/22 12:15:40;;;;;;;14.18;7.15;;;17.40;99.90;;;;;;5063452;28;20044;-71
2021/08/22 12:18:38;;;;;;;12.27;6.95;;;17.40;99.90;;;;;;5079144;28;20030;-71
2021/08/22 12:21:03;;;;;;;12.23;6.32;;;17.40;99.90;;;;;;5076903;28;20413;-71
2021/08/22 12:23:36;;;;;;;11.13;6.78;;;17.30;99.90;;;;;;5063591;28;20029;-72
2021/08/22 12:26:29;;;;;;;10.20;6.63;;;17.30;99.90;;;;;;5063529;28;20032;-72
2021/08/22 12:29:11;;;;;;;15.35;7.30;;;17.30;99.90;;;;;;5063900;28;20072;-70
2021/08/22 12:31:39;;;;;;;11.32;6.38;;;17.30;99.90;;;;;;5063597;28;20036;-72
2021/08/22 12:34:16;;;;;;;10.48;6.53;;;17.40;99.90;;;;;;5063572;28;20161;-71
2021/08/22 12:36:43;;;;;;;9.70;6.35;;;17.40;99.90;;;;;;5063075;28;20017;-70
2021/08/22 12:39:11;;;;;;;10.98;6.68;;;17.50;99.90;;;;;;5062209;28;20060;-72
2021/08/22 12:41:47;;;;;;;9.13;6.07;;;17.50;99.90;;;;;;5063415;28;20037;-71
2021/08/22 12:44:26;;;;;;;8.43;5.78;;;17.60;99.90;;;;;;5062325;28;20396;-69
2021/08/22 12:46:55;;;;;;;9.68;6.18;;;17.60;99.90;;;;;;5062238;28;20036;-71
2021/08/22 12:49:22;;;;;;;9.57;5.68;;;17.60;99.90;;;;;;5063481;28;20109;-71
2021/08/22 12:51:47;;;;;;;15.65;6.80;;;17.50;99.90;;;;;;5064713;28;20025;-71
2021/08/22 12:54:13;;;;;;;8.57;5.70;;;17.60;99.90;;;;;;5066037;28;20076;-71
2021/08/22 12:56:38;;;;;;;10.10;6.38;;;17.60;99.90;;;;;;5066784;28;20045;-70
2021/08/22 12:59:04;;;;;;;10.02;5.80;;;17.70;99.90;;;;;;5067457;28;20032;-72
2021/08/22 13:01:31;;;;;;;12.90;5.78;;;17.80;99.90;;;;;;5067286;28;20401;-71
2021/08/22 13:03:57;;;;;;;9.30;5.70;;;17.80;99.90;;;;;;5067675;28;20029;-72